15th European Championshionship

2018-07-16 to 2018-07-28, FAI Category 1 event

Task 5 - Overall

2018-07-25 Task 5

Race to Goal 91.6 km

Provisional

No Leg Dist. Id Radius Open Close Coordinates Altitude
1 0.0 km T01 1 m 12:40 15:00 Lat: 41.88038 Lon: -7.72032 1509 m
2 SS 2.0 km T03 6000 m 13:40 19:00 Lat: 41.91649 Lon: -7.71434 1238 m
3 7.5 km W32 17000 m 13:40 19:00 Lat: 41.69398 Lon: -7.84832 1279 m
4 16.9 km W32 25000 m 13:40 19:00 Lat: 41.69398 Lon: -7.84832 1279 m
5 26.4 km W32 17000 m 13:40 19:00 Lat: 41.69398 Lon: -7.84832 1279 m
6 ES 88.8 km G22 3000 m 13:40 19:00 Lat: 41.58486 Lon: -6.90711 604 m
7 91.6 km G22 200 m 13:40 19:00 Lat: 41.58486 Lon: -6.90711 604 m
StartGate(s): 13:40

# Id Name Nat Glider Sponsor SS ES Time km/h Distance Dist.
Points
Lead.
Points
Time
Points
Total
1 218 Jurij Vidic M SLO Ozone Enzo 3 Agring doo, Naviter, High Adventure Switzerland, Slovenian Paragliding Team, Air Vuisa 13:40:00 16:23:40 02:43:40 31.8 91.65 364.2 216.3 411.3 992
2 338 Stephan Morgenthaler M SUI Ozone Enzo 3 13:40:00 16:23:42 02:43:42 31.8 91.65 364.2 216.3 410.1 991
3 300 Christoph Eder M AUT Ozone Enzo 3 DFC-Wildkogelfalken/Eder Guido Installationen 13:40:00 16:24:04 02:44:04 31.8 91.65 364.2 222.5 402.2 989
4 12 Julien Wirtz M FRA Ozone Enzo 3 Ozone, Certika 13:40:00 16:23:38 02:43:38 31.9 91.65 364.2 210.5 413.3 988
4 3 Joachim Oberhauser M ITA Ozone Enzo 3 Airecornizzolo-Superfly360-elektroww-Ruedlohg-Xdreamfly-publicolor 13:40:00 16:23:50 02:43:50 31.8 91.65 364.2 217.0 406.7 988
6 114 Daniel Tyrkas M GER Ozone Enzo 3 DHV 13:40:00 16:24:00 02:44:00 31.8 91.65 364.2 219.6 403.4 987
7 575 Michael Maurer M SUI GinGliders Boomerang11 GinGliders/ LaSportiva / cloud-7.ch / ONEDAY 13:40:00 16:24:03 02:44:03 31.8 91.65 364.2 217.8 402.5 985
7 281 Gleb Sukhotskiy M RUS Ozone Enzo3 www.crimea-paragliding.com 13:40:00 16:23:52 02:43:52 31.8 91.65 364.2 214.8 405.9 985
9 515 Tilen Ceglar M SLO Ozone Enzo 3 NAVITER | High Adventure CH | Factorystore.si 13:40:00 16:23:45 02:43:45 31.8 91.65 364.2 210.4 408.7 983
10 16 Primoz Susa M SLO Ozone Enzo 2 camp-gabrje.com, naviter.com, High Adventure Switzerland 13:40:00 16:23:58 02:43:58 31.8 91.65 364.2 213.8 404.0 982
11 291 Marco Busetta M ITA Ozone Enzo 3 Bullet speedbar, ilpistacchio.it, AeCI 13:40:00 16:24:03 02:44:03 31.8 91.65 364.2 214.2 402.5 981
12 50 Pierre Remy M FRA Ozone Enzo3 Cg hautes Pyrénées, midi pyrénées, VLB 13:40:00 16:24:11 02:44:11 31.7 91.65 364.2 214.8 400.3 979
12 1500 Ferdinand Vogel M GER Ozone Enzo 3 13:40:00 16:23:56 02:43:56 31.8 91.65 364.2 210.4 404.6 979
14 5 Charles Cazaux M FRA Ozone Enzo 3 Airlinks Academy l Morzine l Ozone l Naviter l ONE Day 13:40:00 16:23:40 02:43:40 31.8 91.65 364.2 201.7 411.3 977
15 13 Torsten Siegel M GER GIN GLIDERS Boomerang 11 GIN GLIDERS, pets Premium, Naviter 13:40:00 16:24:02 02:44:02 31.8 91.65 364.2 209.2 402.8 976
16 393 Theo Warden M GBR Ozone Enzo 3 Airways airsports,Cross Country Mag,Aerofix 13:40:00 16:23:59 02:43:59 31.8 91.65 364.2 205.5 403.7 973
16 22 Biagio Alberto Vitale M ITA Ozone Ozone EnZo 3 AeCI,AIRE Cornizzolo,Casarini,DMD,Corbelli Elettronica,Infopro 13:40:00 16:24:08 02:44:08 31.8 91.65 364.2 208.1 401.1 973
18 83 Idris Birch M GBR Gin Boom 11 Gin Gliders 13:40:00 16:23:56 02:43:56 31.8 91.65 364.2 202.9 404.6 972
18 1114 Rolf Dale M NOR Ozone Enzo 3 13:40:00 16:24:18 02:44:18 31.7 91.65 364.2 209.1 398.5 972
20 4 Honorin Hamard M FRA Ozone Enzo 3 Altitude Eyewear - Naviter - CG50 - Club des Archanges - Ozone - Ligue Normandie - Icaro - Soartd 13:40:00 16:24:02 02:44:02 31.8 91.65 364.2 202.4 402.8 969
21 205 Ari Sahlstrom M FIN Gin Boomerang 11 Vauhtifarmi Oy 13:40:00 16:24:33 02:44:33 31.7 91.65 364.2 208.5 395.1 968
22 311 Peter Vyparina M SVK Ozone Enzo GAZI statika, SPORTRYSY, Perfectfly, 13:40:00 16:23:56 02:43:56 31.8 91.65 364.2 198.3 404.6 967
22 1295 Philipp Haag M GER Gin Boomerang 11 B.A.H Gruppe/ Maier Sports GmbH 13:40:00 16:24:10 02:44:10 31.8 91.65 364.2 202.1 400.6 967
22 8 Ernesto Hinestroza M GER Ozone Enzo3 DGFW, DHV, Kontest, talkyoo 13:40:00 16:24:15 02:44:15 31.7 91.65 364.2 203.5 399.3 967
25 771 Dusan Oroz M SLO Ozone Enzo 3 High Adventure, Naviter, X-Dreamfly 13:40:00 16:24:49 02:44:49 31.6 91.65 364.2 210.1 391.7 966
26 1987 Krzysztof Schmidt M POL Ozone Zeno QNT Systemy Informatyczne 13:40:00 16:24:18 02:44:18 31.7 91.65 364.2 199.5 398.5 962
27 11 Xevi Bonet Dalmau M ESP Ozone Enzo 3 Ozone/Alamair/Naviter/Alfapilot 13:40:00 16:24:05 02:44:05 31.8 91.65 364.2 195.3 401.9 961
27 102 Michele Boschi M ITA Ozone EnZo 3 Digifly - AireCornizzolo- AeCI 13:40:00 16:24:17 02:44:17 31.7 91.65 364.2 198.1 398.8 961
29 63 Francisco Javier Reina M ESP Ozone Enzo 3 Ozone.alamair 13:40:00 16:25:02 02:45:02 31.6 91.65 364.2 204.3 389.1 958
30 14 Christian Biasi M ITA OZONE Enzo 3 TRENTINO - MONTURA - AIRE TEAM - AECI 13:40:00 16:24:37 02:44:37 31.7 91.65 364.2 198.2 394.2 957
30 17 Ulrich Prinz M GER Ozone Enzo 3 Ozone 13:40:00 16:25:04 02:45:04 31.6 91.65 364.2 203.8 388.7 957
30 541 Michal Gierlach M POL Ozone Enzo 3 XC Spike, SPBW, Airvuisa 13:40:00 16:24:36 02:44:36 31.7 91.65 364.2 198.2 394.4 957
30 282 Bojan Gabersek M SLO Ozone Enzo 3 AVTODELI GABERSEK, IBUS, ASKELA, COMPANI 13:40:00 16:25:05 02:45:05 31.6 91.65 364.2 204.1 388.5 957
34 269 Vladimir Bacanin M SRB Ozone Enzo 2 VS Srbije, Air 037 Krusevac 13:40:00 16:24:11 02:44:11 31.7 91.65 364.2 189.5 400.3 954
34 10 Meryl Delferriere F FRA Ozone Enzo 3 Ressources parapente/xctracer/adrenagliss 13:40:00 16:25:15 02:45:15 31.5 91.65 364.2 203.0 386.7 954
34 621 Nuno Virgilio M POR Ozone Enzo 3 Flymaster / paragliding.BSTOKED.net / ActionCoin / Flow paragliders 13:40:00 16:24:28 02:44:28 31.7 91.65 364.2 193.9 396.2 954
37 111 Seiko Fukuoka Naville F FRA Ozone Enzo 4 Addactis, Ozone,Airlinks, La sambuy, Certika,Compass,Oneday,Nana 13:40:00 16:24:51 02:44:51 31.6 91.65 364.2 197.7 391.3 953
38 69 Stanislav Mayer M CZE Gin Boomerang 11 GIN, Kernun, Certicon, SvazPG, HighPoint, Victorinox 13:40:00 16:25:45 02:45:45 31.4 91.65 364.2 201.4 381.4 947
39 44 David Ohlidal M CZE Gin boom LAA ČR,Axis 13:40:00 16:24:41 02:44:41 31.7 91.65 364.2 188.2 393.3 946
40 504 Tadej Krevh M SLO Ozone Enzo3 Naviter.com, High Adventure 13:40:00 16:26:03 02:46:03 31.4 91.65 364.2 201.9 378.5 945
40 34 Andreas Malecki M GER Ozone Enzo 3 MWZ 24, Flugschule Chiemsee, DHV, 13:40:00 16:25:13 02:45:13 31.5 91.65 364.2 193.6 387.0 945
42 68 Petr Kostrhun M CZE Gin Boomerang 11 Atlantis-limousine-service.cz 13:40:00 16:24:14 02:44:14 31.7 91.65 364.2 177.7 399.5 941
43 56 FELIX Rodriguez Fernández M ESP Ozone Enzo 3 OZONE-NACEX-CERTIKA-AIR SPORTS CHAMONIX-JULBO 13:40:00 16:25:35 02:45:35 31.5 91.65 364.2 185.9 383.1 933
44 717 Jan Richard Hansen M NOR Ozone Enzo 3 Epizoom Multimedia Design 13:40:00 16:27:56 02:47:56 31.0 91.65 364.2 190.2 362.2 917
45 997 Pawel Faron M POL Ozone Zeno Fadróg,Connect,Red Bull,Konstrukcje Żywiec, Salewa, flylite.pl 13:40:00 16:31:27 02:51:27 30.4 91.65 364.2 198.4 337.2 900
46 244 Thibault Voglet M BEL Ozone Enzo 2 Fou d´l, Profondeville, Les 7 Meuses 13:40:00 16:31:45 02:51:45 30.3 91.65 364.2 198.9 335.3 898
47 71 Francis De Bruyn M BEL Ozone Enzo 3 13:40:00 16:30:38 02:50:38 30.5 91.65 364.2 190.6 342.6 897
48 98 Simon Arnold M AUT Ozone Enzo 3 flywear 13:40:00 16:31:48 02:51:48 30.3 91.65 364.2 188.9 335.0 888
49 20 Ronny Helgesen M NOR Ozone Enzo 3 Termikk&Rotor A/S 13:40:00 16:31:19 02:51:19 30.4 91.65 364.2 184.7 338.1 887
49 906 Aleksei Korobkov M RUS Ozone Enzo 3 Теплый Дом 13:40:00 16:32:30 02:52:30 30.2 91.65 364.2 191.8 330.6 887
51 33 Balan Antoniu Cristian M ROU Ozone Zeno www.AirSports.ro 13:40:00 16:32:59 02:52:59 30.1 91.65 364.2 189.2 327.6 881
52 6 Yvonne Dathe F GER UP Meru WinMental.de, FlyTeam 13:40:00 16:33:52 02:53:52 30.0 91.65 364.2 193.7 322.3 880
53 251 Martin Long M GBR Ozone Zeno www.flysussex.com 13:40:00 16:32:40 02:52:40 30.2 91.65 364.2 181.0 329.6 875
54 713 Antonio Tabanez Fonseca M POR Ozone Enzo 3 FPVL; AGROL S.A; C.M. Lousã 13:40:00 16:31:08 02:51:08 30.5 91.65 364.2 167.2 339.3 871
55 1 Michael Sigel M SUI GIN Boomerang 11 Gin Gliders, JACK&JONES, Naviter 13:40:00 16:31:16 02:51:16 30.4 91.65 364.2 166.0 338.4 869
56 985 Thomas Brandlehner M AUT Ozone Enzo 3 www.axians.at 13:40:00 16:33:53 02:53:53 30.0 91.65 364.2 175.7 322.2 862
57 224 Malin Lobb M GBR Ozone Enzo 3 FLYEO 13:40:00 16:34:17 02:54:17 29.9 91.65 364.2 170.1 319.8 854
58 51 Sergi Claret Estupinya M ESP Boomerang 11 Kasana, Gin Gliders 13:40:00 16:34:48 02:54:48 29.8 91.65 364.2 164.9 316.8 846
59 1000 Bogdan Bialka M IRL Ozone Enzo 3 SkyMaster 13:40:00 16:34:32 02:54:32 29.9 91.65 364.2 161.4 318.4 844
60 41 Eusebio Soares M POR Ozone Enzo 3 Soares & Soares 13:40:00 16:35:40 02:55:40 29.7 91.65 364.2 159.9 311.9 836
61 35 Tomas Podmanik M SVK Ozone Zeno obec Veľké Kršteňany, LAA SR, REVIS 13:40:00 16:37:56 02:57:56 29.3 91.65 364.2 170.7 299.6 835
62 84 Clement Latour M FRA Ozone ENZO3 FFVL SUPAIR 13:40:00 16:43:26 03:03:26 28.4 91.65 364.2 187.9 272.0 824
63 26 Julian Robinson M GBR Gin Boomerang 11 UK Airsports 13:40:00 16:40:54 03:00:54 28.8 91.65 364.2 173.6 284.3 822
64 103 Peter Nägele M GER Ozone Enzo 3 DHV, DCH, yellow cross 13:40:00 16:41:54 03:01:54 28.7 91.65 364.2 170.9 279.4 815
65 31 Carlos Lopes M POR UP Meru www.mineiro.com.pt 13:40:00 16:43:06 03:03:06 28.5 91.65 364.2 164.4 273.6 802
66 42 Yael Margelisch F SUI Ozone Enzo 3 GDentanBySutech, Naviter, ONEDAY, Alp'sports thérapies 13:40:00 16:44:19 03:04:19 28.3 91.65 364.2 167.8 267.8 800
67 54 Jose Rebelo M POR Ozone Enzo 3 FPVL, Bstoked, CP Linhares da Beira 13:40:00 16:45:00 03:05:00 28.2 91.65 364.2 160.9 264.7 790
68 512 Vitalii Umanskyi M UKR Ozone Enzo 3 13:40:00 16:48:50 03:08:50 27.6 91.65 364.2 166.9 247.4 779
68 47 Artem Lozovoy M RUS Ozone Enzo 3 Спортивная федерация спорта СЛА Ленинградской области 13:40:00 16:47:56 03:07:56 27.7 91.65 364.2 163.7 251.3 779
70 236 Andrey Eliseev M RUS Ozone Enzo 3 no 13:40:00 16:49:10 03:09:10 27.6 91.65 364.2 165.9 245.9 776
71 1717 Umut Akturk M TUR Ozone Enzo 3 Turkish Aeronautical Association 13:40:00 16:48:51 03:08:51 27.6 91.65 364.2 163.2 247.3 775
72 198 Yury Mishanin M RUS Ozone Enzo 3 Федерация спорта СЛА Рязанской области 13:40:00 16:47:38 03:07:38 27.8 91.65 364.2 155.8 252.7 773
73 1117 Silvia Buzzi Ferraris F ITA Ozone Enzo 3 Pandol-Fly ; VerticalAttitude ; AeCI 13:40:00 16:50:24 03:10:24 27.4 91.65 364.2 166.1 240.6 771
73 1405 Mariusz Wisniowski M POL Ozone Enzo 3 13:40:00 16:49:16 03:09:16 27.5 91.65 364.2 161.5 245.5 771
75 404 Antun Lovrec M CRO Ozone Zeno 13:40:00 16:47:58 03:07:58 27.7 91.65 364.2 140.3 251.2 756
76 401 Rasa Grigoraitiene F LTU Ozone Zeno 13:40:00 16:53:02 03:13:02 27.0 91.65 364.2 159.2 229.4 753
77 123 Daria Krasnova F RUS Up Meru UP Paragliders 13:40:00 16:54:29 03:14:29 26.8 91.65 364.2 164.7 223.4 752
77 708 Klaudia Bulgakow F POL Ozone EnZo 3 S Lukoil 13:40:00 16:56:38 03:16:38 26.5 91.65 364.2 172.7 214.7 752
79 222 Federico Nevastro M ITA Gin Boomerang 11 AeCi-Paradelta Club Feltre 13:40:00 16:48:52 03:08:52 27.6 91.65 364.2 139.8 247.2 751
80 48 Tor Jansson M SWE Ozone Zeno velodrom.se skysport.se 13:40:00 16:54:01 03:14:01 26.9 91.65 364.2 149.2 225.3 739
81 273 Zeljko Ovuka M SRB Ozone Enzo 3 VS Srbije, Ares Beograd 13:40:00 16:48:58 03:08:58 27.6 91.65 364.2 125.5 246.8 737
82 1212 Jesus Costa Sanchez M ESP Gin Boomerang 11 Kasana Gin - parapentedesnivel.com -Maditarranean paraglidin.com 13:40:00 16:49:22 03:09:22 27.5 91.65 364.2 127.1 245.0 736
83 121 Gyula Fichtinger M HUN Ozone Zeno Ozone Hungary 13:40:00 16:59:03 03:19:03 26.2 91.65 364.2 160.6 205.1 730
83 181 Sami Pitkakoski M FIN Ozone Zeno 13:40:00 16:52:29 03:12:29 27.1 91.65 364.2 134.0 231.7 730
85 1119 Mari-Anne Aanes F NOR Ozone Zeno 13:40:00 16:55:25 03:15:25 26.7 91.65 364.2 141.5 219.6 725
85 211 Stefan Vyparina M SVK Ozone Enzo 3 Gaži statika, Perfectfly, SPORTRYSY, LAA SR 13:40:00 16:50:50 03:10:50 27.3 91.65 364.2 122.4 238.7 725
87 40 Pavel Iker M CZE Gin Boomerang 11 ZICO a.s.; LAA ČR; GIN ČR 13:40:00 16:53:18 03:13:18 27.0 91.65 364.2 129.7 228.3 722
88 3137 Alexey Bystritskiy M RUS Ozone Enzo 3 asa-fly.ru 13:40:00 16:54:20 03:14:20 26.8 91.65 364.2 132.9 224.0 721
89 453 Alexander Schalber M AUT Ozone Enzo 3 Flugschule Salzburg / Naviter 13:40:00 16:54:44 03:14:44 26.8 91.65 364.2 133.2 222.4 720
89 333 Predrag Neskovic M SRB Ozone Zeno VS Srbije, Pegaz Ivanjica, www.aquamonteservice.com 13:40:00 16:59:44 03:19:44 26.1 91.65 364.2 153.7 202.5 720
89 353 Aron Michiels M BEL Ozone Enzo 3 FreeToFly 13:40:00 16:51:54 03:11:54 27.2 91.65 364.2 121.9 234.2 720
92 161 Christian Amon M AUT Ozone Enzo 3 Mac Para-Kortell 13:40:00 16:54:31 03:14:31 26.8 91.65 364.2 128.2 223.3 716
92 1611 Ricardo Rodrigues M POR Ozone Zeno paragliding.BSTOKED.net; Azores Airlines; BGD 13:40:00 16:55:35 03:15:35 26.7 91.65 364.2 132.8 218.9 716
92 62 Petra Slivova F CZE Gin Boomerang 11 GIN GLIDERS, LAA CR 13:40:00 16:54:30 03:14:30 26.8 91.65 364.2 128.1 223.4 716
95 1177 Antoni Buljan M CRO Ozone Zeno Absolute adventure 13:40:00 16:54:12 03:14:12 26.8 91.65 364.2 126.6 224.6 715
96 78 Eemeli Aittokallio M FIN Ozone Zeno 13:40:00 16:58:08 03:18:08 26.3 91.65 364.2 140.3 208.7 713
97 201 Johanna Hamne F SWE Ozone Zeno Odd Molly 13:40:00 16:53:54 03:13:54 26.9 91.65 364.2 122.4 225.8 712
98 542 Stanislav Vojtek M SVK Ozone Zeno Funcars,belmar,čau sa bau 13:40:00 17:01:00 03:21:00 25.9 91.65 364.2 149.4 197.6 711
99 24 Damir Habek M CRO Niviuk Icepeak 8 13:40:00 16:55:12 03:15:12 26.7 91.65 364.2 124.6 220.5 709
99 266 Peter Budai M HUN Ozone Zeno 13:40:00 16:59:55 03:19:55 26.1 91.65 364.2 142.7 201.7 709
101 27 Zoran Boskovic M CRO Niviuk Icepeak 6 Moa 13:40:00 17:00:20 03:20:20 26.0 91.65 364.2 142.8 200.1 707
102 156 Luis Linde M ESP Ozone Enzo 2 Niviuk - Skywalk España - Draco 13:40:00 16:56:38 03:16:38 26.5 91.65 364.2 122.2 214.7 701
103 340 Nanda Walliser F SUI Up Meru UP Paragliders & High-Adventure 13:40:00 16:56:21 03:16:21 26.5 91.65 364.2 119.9 215.8 700
104 1171 Hakan Lindqvist M SWE Ozone Zeno skysport.se 13:40:00 16:58:26 03:18:26 26.3 91.65 364.2 122.8 207.5 695
105 174 Aleksandar Santrac M BIH Ozone Enzo 3 13:40:00 16:58:25 03:18:25 26.3 91.65 364.2 120.4 207.6 692
106 261 Konstiantyn Matusevych M UKR Ozone Zeno "Antonov" company, Nearbirds 13:40:00 17:06:14 03:26:14 25.3 91.65 364.2 126.0 177.9 668
107 191 Mirvad Zenuni M BIH Ozone Zeno Muscle Freak 13:40:00 17:05:40 03:25:40 25.3 91.65 364.2 100.7 179.9 645
108 707 Remko Bolt M NED Ozone Zeno http://www.winchline.nl/ 13:40:00 17:20:29 03:40:29 23.6 91.65 364.2 111.7 127.9 604
109 32 Evgeny Kalashnik M UKR Gin Boom 11 Kalashnik 13:40:00 17:15:37 03:35:37 24.2 91.65 364.2 94.6 144.4 603
109 399 Dominika Kasieczko F POL Ozone Zeno Ozone Polska, GRAVITACJA 13:40:00 17:16:13 03:36:13 24.1 91.65 364.2 96.7 142.4 603
111 1011 Lara Leban F SLO NOVA Sector Naviter, Adrenalin paragliding team, Triple seven 13:40:00 17:19:28 03:39:28 23.8 91.65 364.2 92.5 131.3 588
112 314 Kristian Andersson M NOR Ozone Zeno JK 13:40:00 17:17:14 03:37:14 24.0 91.65 364.2 79.8 138.9 583
113 2 Tudor Dorobantu M ROU Niviuk Klimber P Tellur 13:40:00 17:18:29 03:38:29 23.9 91.65 364.2 81.8 134.6 581
113 317 Srdjan Kesic M SRB Ozone Enzo 3 VS Srbije, AK Novi Sad 13:40:00 17:18:39 03:38:39 23.8 91.65 364.2 83.1 134.1 581
115 235 John Herman Sorheim M NOR Ozone Enzo 3 Kystdesign 13:40:00 17:18:32 03:38:32 23.9 91.65 364.2 78.7 134.5 577
116 248 Volodymyr Perevalov M UKR Ozone Enzo3 NearBirds 13:40:00 17:19:02 03:39:02 23.8 91.65 364.2 78.9 132.8 576
117 539 Antanas Jakucevicius M LTU Ozone Zeno Nemanta 13:40:00 17:17:38 03:37:38 24.0 91.65 364.2 73.3 137.5 575
118 117 Pierre Therer M BEL Ozone Enzo 2 AirDeck 13:40:00 17:25:32 03:45:32 23.1 91.65 364.2 66.4 111.3 542
119 77 Jan Jares M CZE Up Meru/XR7 eHAMnet UP-czech, Flyskin, LAAcr 13:40:00 16:47:26 03:07:26 27.8 90.53 359.8 155.2 515
120 7 Luc Armant M FRA Ozone Enzo 3 ozone 13:40:00 81.27 323.0 182.5 506
121 15 Daniel Pop M ROU BGD Diva BGD 13:40:00 80.15 318.5 59.5 378
122 21 Dana Kelemen F ROU Ozone Alpina 2 13:40:00 73.58 292.4 31.1 324
123 173 Birkan Paçali M TUR Ozone Zeno THK 13:40:00 55.90 222.1 54.4 277
124 81 Florin Iftinca M ROU Swing Nexus 13:40:00 51.43 204.4 204
125 9 Razvan Nitoiu M ROU Ozone Delta 3 retrofit.ro 13:40:00 46.26 183.8 184
126 49 Silvia de Oliveira Ventura F POR NOVA Triton 2 Light XS NOVA, WIND 13:40:00 38.75 154.0 154
127 66 Jessica Cox F GBR Ozone Zeno Fly Sussex Paragliding 13:40:00 36.10 143.5 144
127 676 Dominik Breitinger M SUI Gin Boomerang 11 GIN-Gliders 13:40:00 36.17 143.7 144
129 815 Katalin Juhasz F HUN Ozone Zeno fAirPlay, lortech, ASE 13:40:00 36.03 143.2 143
130 212 Etienne Coupez M LUX Ozone Enzo 3 13:40:00 30.36 120.7 121
131 384 Andrew Williams M GBR Ozone Zeno ESCAPE XC 13:40:00 28.12 111.8 112
132 871 Paulo Silva M POR Gin Boomerang 11 Azores Airlines 13:40:00 23.56 93.6 94
133 46 Kalle Ojamo M FIN Ozone Zeno Greenled.fi 13:40:00 22.84 90.7 91
134 375 Srdjan Ristanovic M SRB Ozone Enzo 3 VS Srbije, Xperience360 13:40:00 20.53 81.6 82
135 25 Jaroslav Janduch M SVK Ozone Enzo 2 Laa.sk Premat,s.r.o. 13:40:00 20.45 81.3 81
135 313 Quentin Debras M BEL BGD Diva Tilman SA - BGD - LaRoch'Ailes - Willame Motors - Kia Belux Atom 13:40:00 20.37 81.0 81
137 262 Ewa Korneluk-Guzy F GER Ozone Zeno paraclinic.at, Sziols 13:40:00 20.16 80.1 80
138 998 Jacek Gorski M POL Ozone Zeno Alti-paralotnie 13:40:00 19.67 78.2 78
139 249 Emil Cervenan M SVK Ozone Enzo 3 LAA SR | AXIS PARAGLIDING 13:40:00 19.08 75.8 76
140 29 Romana Schubertova F SVK UP Trango XC3 UP Slovakia 13:40:00 18.45 73.3 73
141 1771 Nils-Aake Carlsson M SWE Ozone Enzo 3 FlyItParagliding.com 13:40:00 17.26 68.6 69
142 45 Adrian Hachen M SUI Gin Gliders Boomerang 11 GIN Gliders 13:40:00 16.84 66.9 67
143 119 Stanislav Klikar M CZE Ozone Enzo 2 Axispara.cz, LaaCR, pgkb.cz 13:40:00 13.03 51.8 52
143 741 Stepan Kechedzhi M UKR Ozone Enzo 3 13:40:00 13.05 51.9 52
145 377 Elisabeth Egger F AUT Ozone Zeno S Egger BEST-Box BetriebsgmbH 13:40:00 9.98 39.7 40
146 500 Jost Napret M SLO Ozone Enzo 3 NAVITER I High Adventure Switzerland 13:40:00 9.23 36.7 37
147 234 Juho Komulainen M FIN Ozone Enzo 3 Flymigu 13:40:00 8.45 33.6 34
148 316 Marco Littame M ITA Ozone Enzo 2 luca/lisa 13:40:00 8.41 33.4 33
149 19 Kimmo Korhonen M FIN Gin Boomerang 11 Redheat Oy, Levytyö Särkinen Oy 13:40:00 6.63 26.3 26

Pilots absent from task (ABS)

Id Name
28 Marek Janosik

Pilots not yet processed (NYP)

Id Name

Task statistics

param value
ss_distance 86.874
task_distance 91.645
launch_to_ess_distance 88.845
no_of_pilots_present 149
no_of_pilots_flying 149
no_of_pilots_lo 31
no_of_pilots_reaching_nom_dist 122
no_of_pilots_reaching_es 119
no_of_pilots_reaching_goal 118
sum_flown_distance 11786.854
best_dist 91.645
best_time 2.72722222222222
worst_time 3.75888888888889
no_of_pilots_in_competition 150
no_of_pilots_landed_before_stop 0
sum_dist_over_min 11041.854
sum_real_dist_over_min 11041.854
sum_flown_distances 11786.854
best_real_dist 91.645
last_start_time 2018-07-25T13:40:00+01:00
first_start_time 2018-07-25T13:40:00+01:00
first_finish_time 2018-07-25T16:23:38+01:00
max_time_to_get_time_points 4.37865257867757
no_of_pilots_with_time_points 118
goalratio 0.791946308724832
arrival_weight 0
departure_weight 0
leading_weight 0.22252695192701
time_weight 0.413264339293018
distance_weight 0.364208708779972
smallest_leading_coefficient 2.05174464541349
available_points_distance 364.208708779972
available_points_time 413.264339293018
available_points_departure 0
available_points_leading 222.52695192701
available_points_arrival 0
time_validity 1
launch_validity 1
distance_validity 1
stop_validity 1
day_quality 1
ftv_day_validity 1
time_points_stop_correction 0

Scoring formula settings

param value
id GAP2018
min_dist 5
nom_dist 60
nom_time 1.5
nom_launch 0.96
nom_goal 0.3
day_quality_override 0
bonus_gr 4
jump_the_gun_factor 0
jump_the_gun_max 0
normalize_1000_before_day_quality 0
time_points_if_not_in_goal 0
use_1000_points_for_max_day_quality 0
use_arrival_position_points 0
use_arrival_time_points 0
use_departure_points 0
use_difficulty_for_distance_points 0
use_distance_points 1
use_distance_squared_for_LC 1
use_leading_points 1
use_semi_circle_control_zone_for_goal_line 1
use_time_points 1
scoring_altitude QNH
final_glide_decelerator none
no_final_glide_decelerator_reason
min_time_span_for_valid_task 60
score_back_time 5
use_proportional_leading_weight_if_nobody_in_goal 1
leading_weight_factor 2
turnpoint_radius_tolerance 0.002
Report created: 2018-07-26T13:47:04+01:00

FS development, maintenance and support by